Terminal Aerodrome Forecast
Issued by NWS Sioux Falls, SD

Home | Current Version | Previous Version | Text Only | Print | Product List | Glossary On
Versions: 1 2 3 4 5 6 7 8 9 10 11 12 13 14 15
513
FTUS43 KFSD 240520
TAFHON
TAF
KHON 240520Z 2406/2506 01017G29KT P6SM OVC015
     FM240900 36018G30KT P6SM BKN035
     FM241200 35019G31KT P6SM SCT150
     FM250000 34013G19KT P6SM SKC=

USA.gov is the U.S. government's official web portal to all federal, state and local government web resources and services.